Time;durP1;ratioP1;P1;durP2;ratioP2;P2;SDS_P1;SDS_P2;PMS_P1;PMS_P2;Temp;Humidity;BMP_temperature;BMP_pressure;BME280_temperature;BME280_humidity;BME280_pressure;Samples;Min_cycle;Max_cycle;Signal;HPM_P1;HPM_P2
2022/10/30 00:00:40;;;;;;;17.90;7.97;;;19.60;91.40;;;19.87;58.37;99048.16;5022830;28;123887;-77
2022/10/30 00:03:12;;;;;;;15.10;8.03;;;19.50;91.50;;;19.84;58.27;99052.50;4994703;28;110785;-81
2022/10/30 00:05:43;;;;;;;17.07;8.73;;;19.50;91.60;;;19.81;58.43;99056.06;4990117;28;109697;-76
2022/10/30 00:08:13;;;;;;;21.43;10.30;;;19.50;91.80;;;19.78;58.63;99051.19;4991412;28;124101;-77
2022/10/30 00:10:40;;;;;;;20.97;10.73;;;19.50;91.90;;;19.77;58.75;99045.94;4990956;28;123731;-79
2022/10/30 00:13:07;;;;;;;15.97;8.87;;;19.40;91.90;;;19.74;58.48;99044.69;4994746;28;109362;-76
2022/10/30 00:15:34;;;;;;;13.13;7.10;;;19.40;92.00;;;19.71;58.72;99044.59;4991991;28;108965;-76
2022/10/30 00:18:01;;;;;;;11.83;7.30;;;19.30;92.10;;;19.67;58.78;99049.34;5022646;28;124124;-76
2022/10/30 00:20:28;;;;;;;15.80;7.80;;;19.30;92.20;;;;;;4989828;28;124327;-77
2022/10/30 00:22:54;;;;;;;10.10;7.10;;;19.30;92.20;;;19.61;58.87;99044.00;4991801;28;109333;-77
2022/10/30 00:25:21;;;;;;;15.47;8.37;;;19.30;92.30;;;19.59;58.94;99037.94;4991334;28;109481;-77
2022/10/30 00:27:47;;;;;;;18.00;8.40;;;19.20;92.30;;;19.58;59.14;99041.91;4989754;28;124238;-76
2022/10/30 00:30:15;;;;;;;11.07;7.30;;;19.20;92.40;;;19.56;58.89;99040.66;4992368;28;123045;-77
2022/10/30 00:32:42;;;;;;;11.10;7.23;;;19.20;92.50;;;19.54;59.20;99032.63;4990678;28;110283;-77
2022/10/30 00:35:09;;;;;;;15.20;7.77;;;19.20;92.60;;;19.54;59.11;99035.41;4984359;28;110025;-79
2022/10/30 00:37:36;;;;;;;18.63;8.20;;;19.10;92.60;;;19.52;59.04;99034.16;4984792;28;124343;-80
2022/10/30 00:40:05;;;;;;;14.70;8.47;;;19.20;92.70;;;19.51;59.45;99032.53;4990375;28;124126;-80
2022/10/30 00:42:32;;;;;;;13.63;8.40;;;19.10;92.80;;;19.49;59.67;99037.69;4981599;28;109184;-78
2022/10/30 00:44:58;;;;;;;13.53;8.60;;;19.10;92.80;;;19.48;59.26;99030.44;4990292;28;109153;-76
2022/10/30 00:47:29;;;;;;;12.70;8.20;;;19.10;92.90;;;19.46;59.34;99032.84;4990534;28;123210;-80
2022/10/30 00:50:35;;;;;;;15.53;8.00;;;19.10;92.90;;;19.40;59.49;99030.31;5009512;28;122954;-79
2022/10/30 00:53:06;;;;;;;15.73;7.90;;;19.40;93.10;;;19.39;59.77;99031.47;4961759;28;108285;-77
2022/10/30 00:55:42;;;;;;;13.37;8.20;;;19.00;92.90;;;19.39;59.50;99031.47;4993932;28;109036;-80
2022/10/30 00:58:15;;;;;;;11.60;6.73;;;19.00;93.00;;;19.38;59.45;99027.06;4988668;28;123033;-78
2022/10/30 01:00:49;;;;;;;12.63;7.17;;;19.00;93.00;;;19.39;59.35;99033.47;5017209;28;123847;-79
2022/10/30 01:03:17;;;;;;;11.87;6.37;;;19.00;93.00;;;19.36;59.35;99035.00;5022291;28;108810;-80
2022/10/30 01:05:47;;;;;;;15.20;7.40;;;19.00;92.90;;;19.35;59.42;99025.00;5004255;28;108856;-78
2022/10/30 01:08:14;;;;;;;14.03;7.23;;;18.90;92.90;;;19.32;59.03;99033.31;5025456;28;123755;-78
2022/10/30 01:10:40;;;;;;;10.47;5.90;;;18.90;92.90;;;19.28;59.11;99030.41;4998662;28;123715;-77
2022/10/30 01:13:07;;;;;;;13.10;6.47;;;18.90;92.90;;;19.27;59.13;99031.59;4994616;27;109308;-78
2022/10/30 01:15:40;;;;;;;11.73;6.43;;;18.90;93.20;;;19.27;58.94;99031.59;5009858;28;107997;-81
2022/10/30 01:18:38;;;;;;;10.47;6.10;;;18.80;92.90;;;19.24;58.95;99042.75;5006267;28;123292;-77
2022/10/30 01:21:37;;;;;;;16.13;6.10;;;18.80;92.80;;;19.22;58.93;99040.28;4990253;28;123859;-79
2022/10/30 01:24:27;;;;;;;15.83;6.30;;;18.80;92.80;;;19.22;58.93;99042.28;4989627;28;110248;-80
2022/10/30 01:27:35;;;;;;;9.47;5.17;;;18.80;92.80;;;19.16;58.86;99036.97;4989817;28;109869;-78
2022/10/30 01:30:35;;;;;;;12.77;7.03;;;18.80;92.80;;;19.16;58.78;99047.34;4980774;28;124828;-78
2022/10/30 01:33:19;;;;;;;9.80;6.00;;;18.70;92.80;;;19.16;58.79;99041.75;4989935;28;123732;-78
2022/10/30 01:36:09;;;;;;;8.60;5.77;;;18.70;92.80;;;19.14;58.83;99042.09;4992932;28;109079;-76
2022/10/30 01:38:46;;;;;;;12.83;6.13;;;18.70;92.80;;;19.15;58.72;99040.13;4979541;28;108939;-81
2022/10/30 01:41:13;;;;;;;12.83;5.53;;;18.70;92.80;;;19.16;58.82;99044.56;4988446;28;123774;-76
2022/10/30 01:43:41;;;;;;;13.03;5.70;;;18.70;92.80;;;19.15;58.82;99042.91;4985487;28;123973;-80
2022/10/30 01:46:25;;;;;;;13.60;7.27;;;18.70;92.80;;;19.15;58.68;99040.13;4986010;28;109327;-78
2022/10/30 01:49:41;;;;;;;6.67;4.90;;;18.70;92.80;;;19.11;58.83;99028.84;4989476;28;108772;-76
2022/10/30 01:52:21;;;;;;;13.30;6.07;;;18.70;92.90;;;19.06;58.90;99023.50;4991409;28;123108;-77
2022/10/30 01:55:35;;;;;;;23.03;6.77;;;18.60;92.90;;;19.01;58.96;99020.19;4989350;28;125515;-78
2022/10/30 01:58:20;;;;;;;10.40;5.50;;;18.60;92.90;;;18.94;58.93;99018.84;4984990;28;109307;-80
2022/10/30 02:00:52;;;;;;;22.33;6.20;;;18.60;93.00;;;18.95;59.25;99019.66;4994053;28;109083;-77
2022/10/30 02:03:19;;;;;;;12.27;6.50;;;18.60;93.00;;;18.96;59.26;99024.06;5006998;28;122390;-79
2022/10/30 02:05:49;;;;;;;9.27;5.23;;;18.50;93.00;;;18.97;59.09;99017.31;5021609;28;123597;-80
2022/10/30 02:08:16;;;;;;;10.30;5.30;;;18.60;93.00;;;18.92;59.08;99012.78;5021910;28;109242;-79
2022/10/30 02:10:46;;;;;;;11.07;5.43;;;18.50;92.90;;;18.89;59.02;99010.72;4991069;28;109013;-79
2022/10/30 02:13:13;;;;;;;15.03;6.27;;;18.50;92.90;;;18.87;59.26;99007.47;4973635;28;124130;-79
2022/10/30 02:15:41;;;;;;;13.13;6.80;;;18.50;92.90;;;18.85;59.17;99003.41;4987924;28;123662;-80
2022/10/30 02:18:08;;;;;;;15.90;6.33;;;18.50;93.00;;;18.84;59.02;98999.78;4991752;28;110103;-77
2022/10/30 02:20:35;;;;;;;12.93;5.30;;;18.50;93.00;;;18.86;59.11;99008.66;4989211;28;110266;-79
2022/10/30 02:23:03;;;;;;;13.63;6.87;;;18.50;93.10;;;18.87;59.16;99013.06;4988553;28;124342;-78
2022/10/30 02:25:29;;;;;;;12.07;6.90;;;18.50;93.10;;;18.88;59.38;99011.06;4991687;28;123570;-80
2022/10/30 02:27:56;;;;;;;9.37;5.20;;;18.50;93.20;;;18.88;59.51;99011.06;4988440;28;108867;-81
2022/10/30 02:30:22;;;;;;;13.73;6.20;;;18.50;93.30;;;18.86;59.36;98994.66;4989143;28;109080;-79
2022/10/30 02:32:49;;;;;;;10.10;5.53;;;18.40;93.30;;;18.86;59.59;98993.81;4979294;28;126072;-78
2022/10/30 02:35:15;;;;;;;12.23;5.50;;;18.40;93.30;;;18.86;59.61;98993.81;4988603;28;123919;-79
2022/10/30 02:37:42;;;;;;;8.87;5.47;;;18.40;93.30;;;18.87;59.58;98995.44;4990321;28;109260;-83
2022/10/30 02:40:09;;;;;;;10.83;6.17;;;18.40;93.40;;;18.85;59.63;98993.00;4982292;28;108812;-81
2022/10/30 02:42:35;;;;;;;11.07;5.80;;;18.40;93.40;;;18.86;59.59;99000.25;4984836;28;123978;-80
2022/10/30 02:45:02;;;;;;;13.03;6.17;;;18.40;93.40;;;18.87;59.67;99001.06;5024218;28;123812;-80
2022/10/30 02:47:29;;;;;;;10.10;5.63;;;18.40;93.50;;;18.85;59.71;98995.81;4989138;28;109128;-77
2022/10/30 02:49:55;;;;;;;14.77;6.83;;;18.40;93.50;;;18.84;59.88;98994.19;4984455;28;109059;-77
2022/10/30 02:52:23;;;;;;;12.80;6.90;;;18.40;93.50;;;18.83;59.68;98998.16;4988240;28;124184;-79
2022/10/30 02:54:50;;;;;;;13.17;6.07;;;18.40;93.50;;;18.83;59.80;98986.94;4986871;28;124228;-80
2022/10/30 02:57:16;;;;;;;9.73;6.33;;;18.40;93.60;;;18.82;59.92;98992.94;4989571;28;108968;-77
2022/10/30 02:59:43;;;;;;;10.07;5.77;;;18.40;93.60;;;18.81;59.92;98989.31;4993220;28;109615;-80
2022/10/30 03:02:09;;;;;;;10.10;6.20;;;18.40;93.60;;;18.81;59.81;98988.50;5001635;28;124149;-78
2022/10/30 03:04:36;;;;;;;9.97;5.77;;;18.40;93.60;;;18.80;59.86;98998.06;4992005;28;123695;-80
2022/10/30 03:07:02;;;;;;;11.80;5.53;;;18.40;93.70;;;18.80;60.09;98996.06;5027183;28;109777;-80
2022/10/30 03:09:29;;;;;;;9.20;5.47;;;18.30;93.70;;;18.78;59.97;98992.84;4991240;28;109183;-81
2022/10/30 03:11:55;;;;;;;13.20;6.67;;;18.30;93.70;;;18.76;59.93;98989.59;4994989;28;124275;-79
2022/10/30 03:14:22;;;;;;;9.83;5.43;;;18.30;93.70;;;18.75;60.16;98999.16;4991758;28;123798;-78
2022/10/30 03:16:51;;;;;;;12.10;6.00;;;18.30;93.80;;;18.74;60.10;99000.31;4993767;28;110335;-77
2022/10/30 03:19:18;;;;;;;14.17;5.80;;;18.30;93.80;;;18.72;60.18;98994.25;4992542;28;109134;-80
2022/10/30 03:21:45;;;;;;;13.33;6.23;;;18.30;93.80;;;18.70;60.23;98994.63;4994913;28;124544;-82
2022/10/30 03:24:12;;;;;;;15.23;5.53;;;18.30;93.90;;;18.70;60.21;99000.22;4989974;28;124183;-80
2022/10/30 03:26:38;;;;;;;10.63;6.47;;;18.30;93.90;;;18.70;60.23;99005.00;4992330;28;109146;-77
2022/10/30 03:29:05;;;;;;;12.40;6.57;;;18.30;93.90;;;18.67;60.31;99002.91;4992436;28;109039;-78
2022/10/30 03:31:31;;;;;;;11.30;5.97;;;18.20;93.90;;;18.64;60.31;99009.25;4992990;28;122969;-78
2022/10/30 03:33:58;;;;;;;10.87;5.97;;;18.20;93.90;;;18.62;60.40;99003.19;4991870;28;124305;-78
2022/10/30 03:36:25;;;;;;;13.73;6.57;;;18.20;94.00;;;18.61;60.57;99004.38;4993206;28;109289;-78
2022/10/30 03:38:51;;;;;;;10.70;6.17;;;18.20;94.00;;;18.60;60.62;99011.16;4990179;28;109043;-77
2022/10/30 03:41:18;;;;;;;11.13;6.20;;;18.20;94.10;;;18.59;60.59;99017.91;4991148;28;123250;-78
2022/10/30 03:43:44;;;;;;;9.90;5.70;;;18.20;94.10;;;18.59;60.55;99023.50;4974752;28;124132;-77
2022/10/30 03:46:11;;;;;;;13.50;5.83;;;18.10;94.10;;;18.57;60.59;99020.28;4994834;28;109283;-78
2022/10/30 03:48:38;;;;;;;9.17;6.07;;;18.10;94.10;;;18.56;60.56;99027.81;4992084;28;109016;-79
2022/10/30 03:51:05;;;;;;;11.33;5.50;;;18.10;94.10;;;18.54;60.53;99024.59;4991451;28;124051;-78
2022/10/30 03:53:31;;;;;;;10.37;5.53;;;18.10;94.10;;;18.53;60.33;99020.16;4994891;28;123534;-80
2022/10/30 03:56:00;;;;;;;13.10;6.70;;;18.10;94.10;;;18.51;60.48;99017.75;4990852;28;110614;-78
2022/10/30 03:58:28;;;;;;;12.53;5.87;;;18.10;94.10;;;18.51;60.32;99028.94;4990585;28;110006;-78
2022/10/30 04:01:04;;;;;;;12.97;5.60;;;18.10;94.10;;;18.49;60.31;99028.47;4991467;28;123987;-78
2022/10/30 04:03:31;;;;;;;11.23;6.30;;;18.10;94.10;;;18.48;60.22;99023.22;4991152;28;124057;-80
2022/10/30 04:05:58;;;;;;;12.23;5.90;;;18.00;94.00;;;18.46;60.28;99026.41;5024313;28;109507;-78
2022/10/30 04:08:24;;;;;;;12.03;5.40;;;18.00;94.00;;;18.44;60.52;99023.13;4990835;28;108973;-81
2022/10/30 04:10:51;;;;;;;13.13;5.90;;;18.00;94.00;;;18.42;60.50;99025.47;4990950;28;124570;-80
2022/10/30 04:13:19;;;;;;;7.27;4.70;;;18.00;94.10;;;18.39;60.49;99026.19;4994108;28;124595;-78
2022/10/30 04:15:48;;;;;;;14.23;6.37;;;18.00;94.10;;;18.35;60.58;99028.09;4992550;28;109348;-81
2022/10/30 04:18:16;;;;;;;9.80;6.03;;;18.00;94.10;;;18.31;60.60;99018.78;4991827;28;109439;-79
2022/10/30 04:20:44;;;;;;;13.70;6.17;;;17.90;94.10;;;18.30;60.57;99031.16;4988862;28;124090;-78
2022/10/30 04:23:17;;;;;;;13.73;5.60;;;17.90;94.10;;;18.27;60.76;99029.09;4988591;28;123735;-80
2022/10/30 04:25:44;;;;;;;10.60;5.43;;;17.90;94.10;;;18.24;60.69;99024.19;4991198;28;110439;-78
2022/10/30 04:28:11;;;;;;;10.40;5.13;;;17.80;94.10;;;18.23;60.81;99026.16;4991942;28;109413;-78
2022/10/30 04:30:38;;;;;;;15.80;6.27;;;17.80;94.20;;;18.24;60.84;99032.56;4988022;28;124165;-78
2022/10/30 04:33:09;;;;;;;10.50;4.90;;;17.80;94.20;;;18.22;61.23;99032.13;4983734;28;124430;-78
2022/10/30 04:35:37;;;;;;;11.00;5.30;;;17.80;94.30;;;18.21;60.80;99036.09;4989775;28;109820;-80
2022/10/30 04:38:07;;;;;;;14.13;5.20;;;17.80;94.30;;;18.19;60.60;99032.84;4993685;28;109557;-79
2022/10/30 04:40:37;;;;;;;7.23;5.00;;;17.70;94.20;;;18.18;60.92;99032.03;4988243;28;124209;-80
2022/10/30 04:43:05;;;;;;;14.10;5.17;;;17.70;94.20;;;18.17;60.79;99032.41;4988039;28;123885;-79
2022/10/30 04:45:31;;;;;;;11.30;4.80;;;17.70;94.20;;;18.15;60.90;99031.94;4989663;28;110564;-79
2022/10/30 04:48:15;;;;;;;12.97;6.60;;;17.70;94.20;;;18.13;60.76;99037.06;4991149;28;109738;-79
2022/10/30 04:50:42;;;;;;;9.37;5.60;;;17.70;94.30;;;18.12;60.85;99038.25;4982738;28;124350;-81
2022/10/30 04:53:27;;;;;;;10.33;5.13;;;17.70;94.30;;;18.10;60.77;99031.00;5022845;28;123801;-82
2022/10/30 04:55:54;;;;;;;10.97;5.47;;;17.70;94.30;;;18.09;60.87;99025.78;4985232;28;109918;-80
2022/10/30 04:58:20;;;;;;;14.00;6.00;;;17.60;94.30;;;18.08;60.76;99022.19;5023158;28;109081;-82
2022/10/30 05:00:47;;;;;;;11.47;4.80;;;17.60;94.30;;;18.06;60.77;99018.13;4988904;28;124117;-80
2022/10/30 05:03:23;;;;;;;10.00;4.70;;;17.60;94.20;;;18.04;60.60;99021.25;4994684;28;124381;-81
2022/10/30 05:06:22;;;;;;;7.40;5.10;;;17.20;94.10;;;18.01;60.57;99021.16;4993018;28;108276;-78
2022/10/30 05:08:49;;;;;;;12.20;5.57;;;17.60;94.20;;;17.98;60.79;99022.69;5016054;28;110985;-78
2022/10/30 05:11:17;;;;;;;12.43;4.77;;;17.60;94.40;;;17.99;60.83;99023.50;4975125;28;123230;-77
2022/10/30 05:13:43;;;;;;;11.50;4.90;;;17.50;94.20;;;17.97;60.82;99026.63;4990082;28;123576;-78
2022/10/30 05:16:10;;;;;;;13.50;5.43;;;17.50;94.20;;;17.95;60.71;99017.81;4991304;28;109445;-79
2022/10/30 05:18:36;;;;;;;10.50;5.83;;;17.50;94.20;;;17.94;60.87;99016.19;4990470;28;109089;-78
2022/10/30 05:21:03;;;;;;;7.60;4.50;;;17.50;94.20;;;17.93;60.71;99020.16;4989737;28;124516;-78
2022/10/30 05:23:29;;;;;;;9.60;5.30;;;17.50;94.50;;;17.93;60.74;99010.97;4989001;28;124436;-78
2022/10/30 05:25:56;;;;;;;9.03;4.97;;;17.50;94.20;;;17.91;60.63;99007.69;4990274;28;109265;-80
2022/10/30 05:28:22;;;;;;;9.23;5.10;;;17.50;94.20;;;17.90;60.46;99009.69;4989717;28;108927;-80
2022/10/30 05:30:52;;;;;;;6.40;4.57;;;17.50;94.20;;;17.87;60.48;99004.81;4992648;28;123960;-79
2022/10/30 05:33:19;;;;;;;7.77;4.70;;;17.40;94.10;;;17.86;60.47;99014.34;4989958;28;123963;-77
2022/10/30 05:35:45;;;;;;;14.40;4.97;;;17.40;94.10;;;17.84;60.53;99008.31;4992025;28;110317;-78
2022/10/30 05:38:12;;;;;;;12.13;4.80;;;17.40;94.10;;;17.83;60.58;99012.28;4992493;28;109788;-82
2022/10/30 05:40:39;;;;;;;6.23;3.90;;;17.40;94.10;;;17.81;60.33;99007.06;4987603;28;123548;-81
2022/10/30 05:43:06;;;;;;;15.93;5.53;;;17.40;94.00;;;17.81;60.26;99009.00;4993068;28;123816;-78
2022/10/30 05:45:32;;;;;;;8.03;4.63;;;17.40;93.90;;;17.78;59.95;99004.91;4988353;28;109274;-79
2022/10/30 05:48:02;;;;;;;7.50;4.70;;;17.30;93.80;;;17.77;59.75;99008.09;4990298;28;109458;-79
2022/10/30 05:50:30;;;;;;;8.33;4.43;;;17.30;93.80;;;17.74;59.74;99008.78;4988118;28;124154;-79
2022/10/30 05:53:00;;;;;;;11.23;4.93;;;17.30;93.80;;;17.72;59.73;99013.91;4989081;28;123917;-81
2022/10/30 05:55:27;;;;;;;7.97;3.77;;;17.30;93.70;;;17.70;59.87;99007.88;4988540;28;108810;-78
2022/10/30 05:58:04;;;;;;;8.50;3.90;;;17.30;93.70;;;17.69;59.66;99011.84;4990123;28;109365;-81
2022/10/30 06:00:34;;;;;;;7.00;3.97;;;17.30;93.70;;;17.67;59.69;99018.56;4979128;28;124361;-78
2022/10/30 06:03:04;;;;;;;11.87;4.47;;;17.20;93.70;;;17.65;59.65;99018.13;4988425;28;123566;-79
2022/10/30 06:05:33;;;;;;;7.20;3.80;;;17.20;93.60;;;17.65;59.63;99011.72;4989973;28;109175;-77
2022/10/30 06:08:00;;;;;;;7.10;4.80;;;17.20;93.60;;;17.64;59.55;99019.28;4989827;28;109511;-78
2022/10/30 06:10:27;;;;;;;6.50;4.53;;;17.20;93.60;;;17.64;59.32;99018.47;4988977;28;124535;-79
2022/10/30 06:12:59;;;;;;;13.83;4.73;;;17.20;93.50;;;17.61;59.47;99019.19;4992332;28;123754;-80
2022/10/30 06:15:27;;;;;;;6.33;3.70;;;17.20;93.50;;;17.61;59.37;99017.22;4993187;28;109631;-80
2022/10/30 06:17:54;;;;;;;7.30;4.90;;;17.20;93.50;;;17.60;59.39;99018.38;4991260;28;109481;-78
2022/10/30 06:20:25;;;;;;;8.90;3.93;;;17.20;93.50;;;17.60;59.37;99023.97;4990001;28;123218;-79
2022/10/30 06:22:59;;;;;;;8.30;3.53;;;17.20;93.50;;;17.59;59.25;99024.31;4984885;28;124251;-79
2022/10/30 06:25:28;;;;;;;13.47;3.77;;;17.20;93.40;;;17.58;59.28;99020.72;4972412;28;109382;-80
2022/10/30 06:27:54;;;;;;;7.00;4.00;;;17.10;93.40;;;17.58;59.29;99025.50;4973736;28;110932;-80
2022/10/30 06:30:21;;;;;;;10.80;4.67;;;17.10;93.40;;;17.57;59.15;99027.47;4969509;28;123804;-78
2022/10/30 06:32:48;;;;;;;10.77;4.13;;;17.10;93.40;;;17.58;59.40;99025.50;4987497;28;123677;-81
2022/10/30 06:35:15;;;;;;;5.67;3.50;;;17.10;93.40;;;17.57;59.38;99027.47;5000181;28;109508;-77
2022/10/30 06:37:47;;;;;;;7.47;4.50;;;17.10;93.40;;;17.57;59.26;99024.69;4981012;28;108925;-81
2022/10/30 06:40:14;;;;;;;10.30;4.40;;;17.10;93.40;;;17.57;59.25;99029.44;5012638;27;123830;-79
2022/10/30 06:42:43;;;;;;;11.20;4.90;;;17.10;93.40;;;17.56;59.18;99028.63;4971141;28;123713;-81
2022/10/30 06:45:11;;;;;;;7.60;4.57;;;17.10;93.40;;;17.58;59.26;99029.09;4973636;28;109326;-81
2022/10/30 06:47:38;;;;;;;8.20;4.70;;;17.10;93.40;;;17.59;59.23;99021.53;4971503;28;109013;-78
2022/10/30 06:50:12;;;;;;;13.90;5.03;;;17.10;93.40;;;17.62;59.10;99026.41;4980516;28;123999;-83
2022/10/30 06:52:39;;;;;;;10.47;3.87;;;17.20;93.40;;;17.63;58.88;99023.25;4987454;28;126747;-79
2022/10/30 06:55:09;;;;;;;6.80;3.70;;;17.10;93.30;;;17.65;58.76;99029.31;4986607;28;109189;-79
2022/10/30 06:57:36;;;;;;;7.00;4.30;;;17.10;93.30;;;17.67;58.67;99026.16;4989607;28;107946;-77
2022/10/30 07:00:05;;;;;;;10.73;4.50;;;17.10;93.30;;;17.69;58.98;99029.41;4991588;28;124068;-80
2022/10/30 07:02:32;;;;;;;9.50;4.47;;;17.80;93.60;;;17.73;59.00;99027.56;4974344;28;123496;-77
2022/10/30 07:04:58;;;;;;;8.17;4.63;;;17.20;93.40;;;17.77;58.95;99022.06;4988679;28;109328;-79
2022/10/30 07:07:25;;;;;;;8.50;4.33;;;17.20;93.40;;;17.81;58.80;99031.38;4988575;28;109328;-77
2022/10/30 07:09:52;;;;;;;12.97;4.03;;;17.20;93.40;;;17.85;58.85;99035.91;4987440;28;123824;-80
2022/10/30 07:12:18;;;;;;;9.67;4.03;;;17.30;93.40;;;17.87;58.86;99033.56;4987184;28;123842;-77
2022/10/30 07:14:45;;;;;;;8.40;4.50;;;17.30;93.40;;;17.89;58.87;99033.19;4998564;28;109820;-80
2022/10/30 07:17:11;;;;;;;10.70;4.83;;;17.30;93.40;;;17.90;58.49;99039.63;4988422;28;109922;-78
2022/10/30 07:19:38;;;;;;;8.70;4.60;;;17.30;93.30;;;17.88;58.49;99037.97;4972505;28;123254;-80
2022/10/30 07:22:04;;;;;;;10.17;4.70;;;17.30;93.30;;;17.87;58.51;99038.34;4989038;28;124254;-80
2022/10/30 07:24:31;;;;;;;14.77;4.80;;;17.30;93.20;;;17.83;58.62;99040.22;4994560;28;108305;-79
2022/10/30 07:26:57;;;;;;;9.63;4.80;;;17.20;93.20;;;17.79;58.71;99042.13;4987466;28;109205;-78
2022/10/30 07:29:24;;;;;;;13.20;5.20;;;17.20;93.20;;;17.79;58.95;99037.34;4985248;28;124083;-78
2022/10/30 07:31:50;;;;;;;11.10;4.70;;;17.30;93.40;;;17.81;59.22;99039.75;4984903;28;124012;-81
2022/10/30 07:34:17;;;;;;;21.50;4.77;;;17.30;93.60;;;17.80;59.62;99043.72;4987156;28;109213;-78
2022/10/30 07:36:43;;;;;;;14.60;5.83;;;17.20;93.70;;;17.81;59.43;99039.75;4986314;28;111055;-77
2022/10/30 07:39:10;;;;;;;9.03;4.40;;;17.20;93.80;;;17.85;59.88;99040.69;4987358;28;124558;-80
2022/10/30 07:41:36;;;;;;;12.07;5.13;;;17.30;93.90;;;17.90;59.71;99048.81;4985965;28;124076;-78
2022/10/30 07:44:03;;;;;;;8.40;4.07;;;17.30;93.90;;;17.95;59.50;99033.78;4973275;28;108346;-79
2022/10/30 07:46:30;;;;;;;8.93;4.60;;;17.30;93.80;;;17.99;58.81;99040.28;4985732;28;109178;-86
2022/10/30 07:48:56;;;;;;;7.60;4.07;;;17.40;93.60;;;18.03;58.63;99053.19;4988952;28;123080;-88
2022/10/30 07:51:24;;;;;;;8.90;4.30;;;17.40;93.50;;;18.08;58.39;99041.75;4978868;28;124244;-83
2022/10/30 07:53:50;;;;;;;9.30;4.70;;;17.50;93.40;;;18.15;57.99;99040.31;4984210;28;110633;-85
2022/10/30 07:56:17;;;;;;;10.63;4.00;;;17.50;93.20;;;18.17;57.69;99029.59;4996703;28;108398;-79
2022/10/30 07:58:43;;;;;;;10.33;4.60;;;17.60;93.10;;;18.22;57.41;99037.72;4992556;28;123854;-79
2022/10/30 08:01:09;;;;;;;9.07;4.83;;;17.60;93.00;;;18.26;57.40;99033.84;5023670;27;122741;-85
2022/10/30 08:03:36;;;;;;;10.57;4.57;;;17.60;92.90;;;18.33;57.13;99036.03;4989814;28;109998;-76
2022/10/30 08:06:03;;;;;;;9.50;4.90;;;17.70;92.80;;;18.39;57.01;99040.19;4989436;28;110563;-76
2022/10/30 08:08:29;;;;;;;12.60;5.37;;;17.70;92.70;;;18.44;56.86;99042.72;4987846;28;124925;-71
2022/10/30 08:10:56;;;;;;;10.17;5.07;;;17.80;92.70;;;18.50;56.80;99035.69;4993091;28;122824;-77
2022/10/30 08:13:22;;;;;;;12.03;5.43;;;17.90;92.60;;;18.53;56.28;99045.34;5007034;28;108311;-77
2022/10/30 08:15:49;;;;;;;9.60;4.60;;;17.90;92.40;;;18.50;56.23;99046.88;4979244;28;109163;-78
2022/10/30 08:18:16;;;;;;;16.17;5.27;;;17.80;92.30;;;18.49;55.96;99042.47;4992193;28;125544;-77
2022/10/30 08:20:47;;;;;;;12.73;5.07;;;17.90;92.20;;;18.49;56.09;99042.47;4997928;28;124104;-76
2022/10/30 08:23:16;;;;;;;11.07;4.40;;;17.90;92.20;;;18.51;56.07;99044.88;5017488;27;108939;-76
2022/10/30 08:25:42;;;;;;;8.10;4.53;;;17.90;92.10;;;18.53;56.00;99040.56;4990241;28;109006;-78
2022/10/30 08:28:10;;;;;;;8.30;4.50;;;17.90;92.10;;;18.56;55.84;99044.63;4986831;28;122848;-75
2022/10/30 08:30:39;;;;;;;8.53;3.93;;;18.00;92.10;;;18.62;55.90;99039.56;5000994;28;123950;-75
2022/10/30 08:33:12;;;;;;;14.37;5.17;;;18.00;92.10;;;18.66;55.92;99040.47;4974848;28;109075;-75
2022/10/30 08:35:46;;;;;;;12.97;4.03;;;18.00;92.00;;;18.65;56.00;99034.06;4987165;28;108987;-75
2022/10/30 08:38:12;;;;;;;15.03;4.70;;;18.10;92.10;;;18.67;56.02;99039.31;5003275;28;123241;-76
2022/10/30 08:40:42;;;;;;;9.00;4.80;;;18.00;92.10;;;18.66;56.05;99032.09;4988094;28;123751;-77
2022/10/30 08:43:09;;;;;;;14.03;4.87;;;18.00;92.10;;;18.69;56.12;99032.16;4975785;28;109293;-77
2022/10/30 08:45:35;;;;;;;9.83;5.07;;;18.10;92.20;;;18.71;56.24;99027.03;4987207;28;108890;-75
2022/10/30 08:48:04;;;;;;;11.10;4.60;;;18.10;92.20;;;18.74;56.17;99037.53;4989824;28;124104;-83
2022/10/30 08:50:34;;;;;;;16.30;4.83;;;18.10;92.20;;;18.75;56.38;99032.75;4987937;28;123849;-80
2022/10/30 08:53:02;;;;;;;9.53;4.40;;;18.20;92.20;;;18.77;56.18;99036.00;4987063;28;109401;-73
2022/10/30 08:55:31;;;;;;;7.10;3.93;;;18.20;92.20;;;18.81;56.06;99031.31;4985485;28;109811;-77
2022/10/30 08:57:58;;;;;;;11.53;5.37;;;18.20;92.10;;;18.83;55.94;99031.75;4992004;28;124131;-78
2022/10/30 09:00:35;;;;;;;12.93;5.20;;;18.30;92.00;;;18.86;55.73;99033.84;4985463;28;123936;-78
2022/10/30 09:03:01;;;;;;;11.97;4.80;;;18.30;91.90;;;18.91;55.74;99030.78;5020623;27;109006;-83
2022/10/30 09:05:27;;;;;;;12.83;4.30;;;18.30;91.90;;;18.96;55.66;99033.25;4977607;28;109702;-77
2022/10/30 09:07:59;;;;;;;14.83;5.47;;;18.40;91.90;;;19.00;55.63;99033.38;4978214;28;124007;-76
2022/10/30 09:10:29;;;;;;;8.20;4.20;;;18.40;91.90;;;19.04;55.40;99030.66;4982354;28;124064;-76
2022/10/30 09:12:57;;;;;;;12.50;5.13;;;18.50;91.80;;;19.08;55.34;99026.75;4987568;28;108895;-77
2022/10/30 09:15:25;;;;;;;10.93;4.10;;;18.50;91.70;;;19.15;55.42;99034.50;5020273;27;108979;-74
2022/10/30 09:18:03;;;;;;;12.60;4.60;;;18.60;91.80;;;19.20;55.12;99032.25;4989150;28;124529;-81
2022/10/30 09:20:30;;;;;;;8.40;4.30;;;18.60;91.70;;;19.27;55.21;99025.19;5019650;27;123619;-77
2022/10/30 09:22:57;;;;;;;9.70;4.37;;;18.70;91.80;;;19.32;55.17;99031.31;4975294;28;109188;-82
2022/10/30 09:25:23;;;;;;;12.97;4.37;;;18.80;91.80;;;19.38;55.29;99027.06;4990212;28;108963;-82
2022/10/30 09:27:50;;;;;;;9.93;4.70;;;18.80;91.70;;;19.47;54.92;99034.44;4989600;28;124359;-77
2022/10/30 09:30:17;;;;;;;11.43;4.57;;;18.90;91.70;;;19.53;54.61;99038.56;4988443;28;123847;-76
2022/10/30 09:32:44;;;;;;;8.03;4.43;;;18.90;91.50;;;19.57;54.41;99028.25;4985537;28;109177;-74
2022/10/30 09:35:10;;;;;;;10.70;4.40;;;19.00;91.50;;;19.62;54.80;99031.59;4988444;28;109242;-77
2022/10/30 09:37:38;;;;;;;11.23;4.33;;;19.10;91.50;;;19.71;54.21;99036.19;4990763;28;124058;-77
2022/10/30 09:40:06;;;;;;;8.23;3.93;;;19.10;91.40;;;19.76;54.39;99036.72;4985393;28;123819;-76
2022/10/30 09:42:43;;;;;;;14.50;5.03;;;19.20;91.30;;;19.82;53.93;99028.81;4989641;28;109883;-75
2022/10/30 09:45:55;;;;;;;13.70;4.13;;;19.20;91.20;;;19.90;54.35;99035.38;5022733;27;111198;-76
2022/10/30 09:48:46;;;;;;;11.70;4.00;;;19.30;91.20;;;19.99;53.69;99033.19;4994391;28;123656;-81
2022/10/30 09:51:57;;;;;;;8.70;4.20;;;19.40;91.10;;;20.08;53.45;99030.97;4993295;28;122657;-77
2022/10/30 09:54:46;;;;;;;12.47;4.10;;;19.50;90.90;;;20.20;53.43;99039.22;4994868;28;108368;-84
2022/10/30 09:57:49;;;;;;;10.50;4.13;;;19.60;91.00;;;20.29;53.12;99044.59;5022665;27;109103;-78
2022/10/30 10:00:21;;;;;;;13.13;4.70;;;19.70;90.90;;;20.40;52.89;99030.75;4975229;28;123480;-74
2022/10/30 10:03:16;;;;;;;9.10;4.50;;;19.80;90.90;;;20.50;52.82;99035.78;4981633;28;123885;-79
2022/10/30 10:05:58;;;;;;;14.60;4.60;;;19.90;90.80;;;20.61;52.95;99033.19;4985102;28;109320;-76
2022/10/30 10:09:07;;;;;;;9.17;4.33;;;20.00;91.10;;;20.72;52.60;99034.97;5018528;28;109227;-75
2022/10/30 10:11:51;;;;;;;13.00;4.77;;;20.10;90.60;;;20.84;52.52;99031.16;4942574;28;123958;-75
2022/10/30 10:14:27;;;;;;;7.50;3.50;;;20.20;90.60;;;20.98;52.24;99029.78;4987180;28;123715;-76
2022/10/30 10:16:55;;;;;;;13.90;4.97;;;20.30;90.50;;;21.09;51.74;99033.56;4979178;28;108615;-77
2022/10/30 10:19:37;;;;;;;12.70;4.27;;;20.40;90.30;;;21.21;50.97;99032.56;4971030;28;108957;-75
2022/10/30 10:22:51;;;;;;;11.07;4.50;;;20.60;90.10;;;21.31;50.81;99029.91;4967924;28;123889;-76